Time;durP1;ratioP1;P1;durP2;ratioP2;P2;SDS_P1;SDS_P2;PMS_P1;PMS_P2;Temp;Humidity;BMP_temperature;BMP_pressure;BME280_temperature;BME280_humidity;BME280_pressure;Samples;Min_cycle;Max_cycle;Signal;HPM_P1;HPM_P2
2023/12/07 00:00:06;;;;;;;;;;;;;;;;;;137199;1272;22490;-84
2023/12/07 00:03:07;;;;;;;;;;;;;;;;;;136869;1272;22501;-84
2023/12/07 00:06:09;;;;;;;;;;;;;;;;;;137093;1272;22522;-85
2023/12/07 00:09:10;;;;;;;;;;;;;;;;;;137454;1272;22497;-84
2023/12/07 00:12:11;;;;;;;;;;;;;;;;;;136945;1272;22476;-84
2023/12/07 00:15:12;;;;;;;;;;;;;;;;;;136985;1272;22543;-83
2023/12/07 00:18:13;;;;;;;;;;;;;;;;;;137705;1272;22503;-84
2023/12/07 00:21:14;;;;;;;;;;;;;;;;;;136948;1272;22495;-85
2023/12/07 00:24:15;;;;;;;;;;;;;;;;;;136895;1272;23028;-83
2023/12/07 00:27:16;;;;;;;;;;;;;;;;;;137566;1272;23112;-83
2023/12/07 00:30:18;;;;;;;;;;;;;;;;;;136916;1272;22573;-84
2023/12/07 00:33:21;;;;;;;;;;;;;;;;;;136896;1272;22514;-84
2023/12/07 00:36:22;;;;;;;;;;;;;;;;;;137419;1272;22519;-84
2023/12/07 00:39:24;;;;;;;;;;;;;;;;;;137067;1272;22593;-83
2023/12/07 00:42:25;;;;;;;;;;;;;;;;;;136978;1272;22521;-84
2023/12/07 00:45:26;;;;;;;;;;;;;;;;;;137170;1272;22531;-83
2023/12/07 00:48:27;;;;;;;;;;;;;;;;;;137413;1272;22508;-84
2023/12/07 00:51:28;;;;;;;;;;;;;;;;;;137026;1272;22512;-83
2023/12/07 00:54:29;;;;;;;;;;;;;;;;;;137052;1272;22517;-83
2023/12/07 00:57:30;;;;;;;;;;;;;;;;;;137078;1272;22510;-83
2023/12/07 01:00:31;;;;;;;;;;;;;;;;;;137264;1272;22456;-83
2023/12/07 01:03:33;;;;;;;;;;;;;;;;;;137427;1272;22656;-83
2023/12/07 01:06:34;;;;;;;;;;;;;;;;;;137445;1268;22559;-83
2023/12/07 01:09:37;;;;;;;;;;;;;;;;;;137376;1272;22518;-83
2023/12/07 01:12:38;;;;;;;;;;;;;;;;;;136972;1272;22558;-84
2023/12/07 01:15:39;;;;;;;;;;;;;;;;;;137678;1272;22497;-84
2023/12/07 01:18:40;;;;;;;;;;;;;;;;;;137693;1272;22347;-84
2023/12/07 01:21:42;;;;;;;;;;;;;;;;;;137099;1272;22511;-84
2023/12/07 01:24:43;;;;;;;;;;;;;;;;;;137426;1272;22532;-83
2023/12/07 01:27:45;;;;;;;;;;;;;;;;;;137326;1272;22546;-84
2023/12/07 01:30:46;;;;;;;;;;;;;;;;;;137184;1272;22526;-83
2023/12/07 01:33:47;;;;;;;;;;;;;;;;;;137030;1272;22550;-84
2023/12/07 01:36:51;;;;;;;;;;;;;;;;;;137318;1272;22505;-85
2023/12/07 01:39:52;;;;;;;;;;;;;;;;;;136890;1272;22701;-84
2023/12/07 01:42:53;;;;;;;;;;;;;;;;;;136979;1272;22541;-84
2023/12/07 01:45:54;;;;;;;;;;;;;;;;;;137587;1265;22524;-85
2023/12/07 01:48:55;;;;;;;;;;;;;;;;;;136925;1272;22537;-83
2023/12/07 01:51:56;;;;;;;;;;;;;;;;;;136877;1272;22596;-84
2023/12/07 01:54:57;;;;;;;;;;;;;;;;;;137481;1272;22460;-85
2023/12/07 01:57:58;;;;;;;;;;;;;;;;;;136956;1272;22551;-85
2023/12/07 02:01:00;;;;;;;;;;;;;;;;;;136905;1272;22533;-85
2023/12/07 02:04:01;;;;;;;;;;;;;;;;;;137376;1272;22511;-85
2023/12/07 02:07:02;;;;;;;;;;;;;;;;;;137173;1264;22525;-85
2023/12/07 02:10:03;;;;;;;;;;;;;;;;;;136891;1272;22981;-85
2023/12/07 02:13:04;;;;;;;;;;;;;;;;;;137113;1272;22534;-84
2023/12/07 02:16:05;;;;;;;;;;;;;;;;;;137448;1272;22505;-85
2023/12/07 02:19:06;;;;;;;;;;;;;;;;;;136913;1272;22589;-85
2023/12/07 02:22:08;;;;;;;;;;;;;;;;;;136884;1272;22511;-83
2023/12/07 02:25:09;;;;;;;;;;;;;;;;;;137522;1272;22501;-86
2023/12/07 02:28:10;;;;;;;;;;;;;;;;;;136667;1272;23068;-85
2023/12/07 02:31:11;;;;;;;;;;;;;;;;;;136910;1272;22570;-85
2023/12/07 02:34:13;;;;;;;;;;;;;;;;;;137117;1272;22530;-84
2023/12/07 02:37:15;;;;;;;;;;;;;;;;;;136527;1272;22515;-84
2023/12/07 02:40:17;;;;;;;;;;;;;;;;;;137106;1272;22533;-84
2023/12/07 02:43:18;;;;;;;;;;;;;;;;;;137345;1272;22543;-86
2023/12/07 02:46:19;;;;;;;;;;;;;;;;;;136908;1272;23054;-87
2023/12/07 02:49:20;;;;;;;;;;;;;;;;;;136998;1272;25269;-83
2023/12/07 02:52:24;;;;;;;;;;;;;;;;;;137509;1268;22528;-86
2023/12/07 02:55:25;;;;;;;;;;;;;;;;;;136954;1272;22511;-84
2023/12/07 02:58:26;;;;;;;;;;;;;;;;;;136933;1272;22533;-83
2023/12/07 03:01:27;;;;;;;;;;;;;;;;;;137602;1272;22543;-83
2023/12/07 03:04:28;;;;;;;;;;;;;;;;;;136997;1272;22573;-85
2023/12/07 03:07:29;;;;;;;;;;;;;;;;;;136945;1272;22557;-85
2023/12/07 03:10:31;;;;;;;;;;;;;;;;;;137625;1272;22517;-86
2023/12/07 03:13:32;;;;;;;;;;;;;;;;;;137048;1272;22486;-85
2023/12/07 03:16:33;;;;;;;;;;;;;;;;;;136921;1272;22558;-85
2023/12/07 03:19:34;;;;;;;;;;;;;;;;;;137224;1272;22532;-85
2023/12/07 03:22:35;;;;;;;;;;;;;;;;;;136930;1272;22566;-84
2023/12/07 03:25:37;;;;;;;;;;;;;;;;;;136881;1272;22872;-83
2023/12/07 03:28:38;;;;;;;;;;;;;;;;;;137187;1272;26083;-84
2023/12/07 03:31:41;;;;;;;;;;;;;;;;;;136835;1272;22601;-83
2023/12/07 03:34:42;;;;;;;;;;;;;;;;;;136928;1272;22554;-84
2023/12/07 03:37:43;;;;;;;;;;;;;;;;;;137367;1272;22551;-84
2023/12/07 03:40:47;;;;;;;;;;;;;;;;;;136870;1272;26915;-85
2023/12/07 03:43:49;;;;;;;;;;;;;;;;;;136845;1272;22567;-85
2023/12/07 03:46:50;;;;;;;;;;;;;;;;;;137245;1272;23632;-84
2023/12/07 03:49:51;;;;;;;;;;;;;;;;;;136345;1272;22501;-84
2023/12/07 03:52:52;;;;;;;;;;;;;;;;;;136525;1272;22655;-85
2023/12/07 03:55:53;;;;;;;;;;;;;;;;;;136908;1272;22547;-85
2023/12/07 03:58:54;;;;;;;;;;;;;;;;;;137077;1272;22630;-84
2023/12/07 04:01:56;;;;;;;;;;;;;;;;;;137003;1272;23100;-84
2023/12/07 04:05:01;;;;;;;;;;;;;;;;;;136522;1272;22646;-83
2023/12/07 04:08:03;;;;;;;;;;;;;;;;;;137176;1272;22678;-83
2023/12/07 04:11:06;;;;;;;;;;;;;;;;;;136938;1272;23245;-84
2023/12/07 04:14:07;;;;;;;;;;;;;;;;;;137584;1272;22424;-84
2023/12/07 04:17:09;;;;;;;;;;;;;;;;;;136949;1272;26394;-84
2023/12/07 04:20:10;;;;;;;;;;;;;;;;;;136828;1272;22526;-83
2023/12/07 04:23:12;;;;;;;;;;;;;;;;;;136587;1272;22518;-85
2023/12/07 04:26:15;;;;;;;;;;;;;;;;;;136410;1272;22523;-83
2023/12/07 04:29:16;;;;;;;;;;;;;;;;;;136900;1272;22583;-83
2023/12/07 04:32:18;;;;;;;;;;;;;;;;;;137221;1272;22595;-84
2023/12/07 04:35:19;;;;;;;;;;;;;;;;;;136915;1270;22619;-84
2023/12/07 04:38:20;;;;;;;;;;;;;;;;;;136949;1268;22608;-83
2023/12/07 04:41:22;;;;;;;;;;;;;;;;;;136731;1262;22494;-84
2023/12/07 04:44:25;;;;;;;;;;;;;;;;;;137013;1272;288817;-83
2023/12/07 04:47:27;;;;;;;;;;;;;;;;;;137446;1272;22562;-82
2023/12/07 04:50:28;;;;;;;;;;;;;;;;;;137111;1261;22593;-82
2023/12/07 04:53:29;;;;;;;;;;;;;;;;;;137552;1272;22545;-82
2023/12/07 04:56:30;;;;;;;;;;;;;;;;;;137556;1272;22569;-82
2023/12/07 04:59:32;;;;;;;;;;;;;;;;;;137610;1272;22320;-83
2023/12/07 05:02:33;;;;;;;;;;;;;;;;;;137596;1272;22339;-83
2023/12/07 05:05:34;;;;;;;;;;;;;;;;;;137611;1272;22339;-83
2023/12/07 05:08:35;;;;;;;;;;;;;;;;;;137620;1272;22929;-83
2023/12/07 05:11:37;;;;;;;;;;;;;;;;;;137610;1272;22695;-83
2023/12/07 05:14:38;;;;;;;;;;;;;;;;;;137646;1272;22887;-83
2023/12/07 05:17:39;;;;;;;;;;;;;;;;;;137638;1272;22797;-83
2023/12/07 05:20:41;;;;;;;;;;;;;;;;;;137423;1272;22575;-83
2023/12/07 05:23:42;;;;;;;;;;;;;;;;;;137592;1272;22766;-81
2023/12/07 05:26:43;;;;;;;;;;;;;;;;;;137605;1272;22758;-82
2023/12/07 05:29:44;;;;;;;;;;;;;;;;;;137614;1272;22342;-82
2023/12/07 05:32:45;;;;;;;;;;;;;;;;;;137598;1272;22313;-81
2023/12/07 05:35:46;;;;;;;;;;;;;;;;;;137654;1272;22330;-82
2023/12/07 05:38:47;;;;;;;;;;;;;;;;;;137524;1272;22494;-81
2023/12/07 05:41:48;;;;;;;;;;;;;;;;;;137228;1272;23131;-82
2023/12/07 05:44:50;;;;;;;;;;;;;;;;;;137498;1272;22521;-83
2023/12/07 05:47:51;;;;;;;;;;;;;;;;;;136936;1254;22931;-81
2023/12/07 05:50:52;;;;;;;;;;;;;;;;;;137661;1272;22340;-80
2023/12/07 05:53:53;;;;;;;;;;;;;;;;;;137644;1272;22672;-81
2023/12/07 05:56:54;;;;;;;;;;;;;;;;;;137634;1272;22324;-81
2023/12/07 05:59:55;;;;;;;;;;;;;;;;;;137613;1262;22284;-82
2023/12/07 06:02:56;;;;;;;;;;;;;;;;;;137633;1272;22348;-82
2023/12/07 06:05:58;;;;;;;;;;;;;;;;;;137619;1272;22293;-81
2023/12/07 06:08:59;;;;;;;;;;;;;;;;;;137660;1272;22344;-78
2023/12/07 06:12:00;;;;;;;;;;;;;;;;;;137497;1272;22520;-78
2023/12/07 06:15:01;;;;;;;;;;;;;;;;;;137589;1272;22370;-84
2023/12/07 06:18:03;;;;;;;;;;;;;;;;;;137639;1272;22294;-83
2023/12/07 06:21:04;;;;;;;;;;;;;;;;;;137636;1272;22422;-84
2023/12/07 06:24:08;;;;;;;;;;;;;;;;;;137612;1272;22990;-85
2023/12/07 06:27:10;;;;;;;;;;;;;;;;;;137652;1272;22878;-83
2023/12/07 06:30:15;;;;;;;;;;;;;;;;;;137633;1272;22454;-83
2023/12/07 06:33:17;;;;;;;;;;;;;;;;;;137607;1268;22721;-84
2023/12/07 06:36:18;;;;;;;;;;;;;;;;;;137639;1272;23176;-85
2023/12/07 06:39:22;;;;;;;;;;;;;;;;;;137603;1272;22270;-82
2023/12/07 06:42:24;;;;;;;;;;;;;;;;;;137574;1272;22401;-82
2023/12/07 06:45:25;;;;;;;;;;;;;;;;;;137453;1272;22956;-83
2023/12/07 06:48:27;;;;;;;;;;;;;;;;;;137582;1272;22535;-81
2023/12/07 06:51:28;;;;;;;;;;;;;;;;;;137662;1272;22311;-84
2023/12/07 06:54:30;;;;;;;;;;;;;;;;;;137264;1272;22505;-82
2023/12/07 06:57:31;;;;;;;;;;;;;;;;;;137628;1272;22332;-83
2023/12/07 07:00:37;;;;;;;;;;;;;;;;;;137438;1272;22520;-83
2023/12/07 07:03:38;;;;;;;;;;;;;;;;;;137649;1272;22413;-84
2023/12/07 07:06:40;;;;;;;;;;;;;;;;;;137648;1272;22326;-84
2023/12/07 07:09:42;;;;;;;;;;;;;;;;;;137040;1270;22508;-84
2023/12/07 07:12:43;;;;;;;;;;;;;;;;;;136333;1272;22534;-83
2023/12/07 07:15:45;;;;;;;;;;;;;;;;;;137159;1268;22504;-80
2023/12/07 07:18:46;;;;;;;;;;;;;;;;;;137461;1272;22618;-82
2023/12/07 07:21:47;;;;;;;;;;;;;;;;;;137328;1266;22531;-84
2023/12/07 07:25:02;;;;;;;;;;;;;;;;;;137601;1268;22341;-83
2023/12/07 07:28:10;;;;;;;;;;;;;;;;;;137563;1272;22415;-85
2023/12/07 07:31:11;;;;;;;;;;;;;;;;;;137623;1272;22880;-81
2023/12/07 07:34:13;;;;;;;;;;;;;;;;;;137416;1272;22662;-84
2023/12/07 07:37:14;;;;;;;;;;;;;;;;;;137328;1272;22496;-84
2023/12/07 07:40:16;;;;;;;;;;;;;;;;;;137517;1272;22704;-84
2023/12/07 07:43:20;;;;;;;;;;;;;;;;;;137585;1272;22536;-82
2023/12/07 07:46:22;;;;;;;;;;;;;;;;;;137433;1268;22936;-84
2023/12/07 07:49:23;;;;;;;;;;;;;;;;;;137602;1270;22297;-81
2023/12/07 07:52:27;;;;;;;;;;;;;;;;;;137606;1272;22351;-82
2023/12/07 07:55:32;;;;;;;;;;;;;;;;;;137624;1272;22412;-83
2023/12/07 07:58:39;;;;;;;;;;;;;;;;;;137018;1272;22548;-81
2023/12/07 08:01:47;;;;;;;;;;;;;;;;;;137413;1265;22552;-83
2023/12/07 08:04:49;;;;;;;;;;;;;;;;;;137545;1272;23000;-83
2023/12/07 08:07:54;;;;;;;;;;;;;;;;;;137107;1272;22552;-82
2023/12/07 08:10:55;;;;;;;;;;;;;;;;;;136780;1272;23371;-86
2023/12/07 08:13:56;;;;;;;;;;;;;;;;;;137500;1272;22896;-80
2023/12/07 08:17:01;;;;;;;;;;;;;;;;;;137342;1269;22550;-83
2023/12/07 08:20:05;;;;;;;;;;;;;;;;;;137705;1272;22673;-82
2023/12/07 08:23:23;;;;;;;;;;;;;;;;;;137705;1272;22419;-82
2023/12/07 08:26:27;;;;;;;;;;;;;;;;;;137647;1272;22361;-83
2023/12/07 08:29:28;;;;;;;;;;;;;;;;;;137627;1272;22761;-80
2023/12/07 08:32:30;;;;;;;;;;;;;;;;;;137630;1272;22340;-80
2023/12/07 08:35:31;;;;;;;;;;;;;;;;;;137507;1272;24175;-81
2023/12/07 08:38:38;;;;;;;;;;;;;;;;;;137657;1272;22418;-84
2023/12/07 08:41:39;;;;;;;;;;;;;;;;;;137642;1272;22356;-84
2023/12/07 08:44:44;;;;;;;;;;;;;;;;;;137374;1265;22557;-83
2023/12/07 08:47:46;;;;;;;;;;;;;;;;;;137614;1272;22506;-84
2023/12/07 08:50:50;;;;;;;;;;;;;;;;;;136763;1272;22546;-83
2023/12/07 08:53:55;;;;;;;;;;;;;;;;;;136975;1268;22542;-82
2023/12/07 08:56:56;;;;;;;;;;;;;;;;;;137144;1272;22539;-83
2023/12/07 08:59:59;;;;;;;;;;;;;;;;;;137635;1272;22674;-83
2023/12/07 09:03:02;;;;;;;;;;;;;;;;;;136877;1272;22532;-83
2023/12/07 09:06:10;;;;;;;;;;;;;;;;;;136643;1272;22560;-84
2023/12/07 09:09:12;;;;;;;;;;;;;;;;;;137462;1272;23313;-84
2023/12/07 09:12:13;;;;;;;;;;;;;;;;;;136663;1272;22776;-84
2023/12/07 09:15:15;;;;;;;;;;;;;;;;;;137605;1272;22495;-80
2023/12/07 09:18:16;;;;;;;;;;;;;;;;;;137355;1272;22494;-85
2023/12/07 09:21:23;;;;;;;;;;;;;;;;;;137668;1266;22746;-83
2023/12/07 09:24:28;;;;;;;;;;;;;;;;;;137594;1272;22320;-83
2023/12/07 09:27:31;;;;;;;;;;;;;;;;;;137585;1272;22479;-79
2023/12/07 09:30:33;;;;;;;;;;;;;;;;;;137643;1272;22356;-83
2023/12/07 09:33:34;;;;;;;;;;;;;;;;;;137622;1272;22402;-83
2023/12/07 09:36:39;;;;;;;;;;;;;;;;;;137620;1272;22338;-81
2023/12/07 09:39:41;;;;;;;;;;;;;;;;;;137254;1272;22533;-81
2023/12/07 09:42:52;;;;;;;;;;;;;;;;;;136980;1272;24255;-81
2023/12/07 09:45:57;;;;;;;;;;;;;;;;;;137401;1272;22507;-82
2023/12/07 09:48:58;;;;;;;;;;;;;;;;;;137189;1272;22504;-81
2023/12/07 09:52:00;;;;;;;;;;;;;;;;;;137672;1272;22383;-82
2023/12/07 09:55:01;;;;;;;;;;;;;;;;;;137049;1272;22579;-83
2023/12/07 09:58:06;;;;;;;;;;;;;;;;;;137232;1272;22556;-81
2023/12/07 10:01:14;;;;;;;;;;;;;;;;;;136870;1272;22533;-82
2023/12/07 10:04:16;;;;;;;;;;;;;;;;;;137517;1272;22590;-82
2023/12/07 10:07:17;;;;;;;;;;;;;;;;;;137476;1272;22474;-84
2023/12/07 10:10:21;;;;;;;;;;;;;;;;;;137338;1272;22505;-80
2023/12/07 10:13:22;;;;;;;;;;;;;;;;;;137621;1272;22550;-84
2023/12/07 10:16:24;;;;;;;;;;;;;;;;;;137611;1272;22432;-84
2023/12/07 10:19:30;;;;;;;;;;;;;;;;;;137594;1272;22339;-83
2023/12/07 10:22:33;;;;;;;;;;;;;;;;;;137562;1272;22484;-84
2023/12/07 10:25:38;;;;;;;;;;;;;;;;;;137306;1268;23134;-84
2023/12/07 10:28:39;;;;;;;;;;;;;;;;;;137643;1272;22339;-83
2023/12/07 10:31:43;;;;;;;;;;;;;;;;;;137287;1272;22487;-84
2023/12/07 10:34:45;;;;;;;;;;;;;;;;;;137213;1272;22486;-83
2023/12/07 10:37:47;;;;;;;;;;;;;;;;;;137433;1272;22499;-83
2023/12/07 10:40:48;;;;;;;;;;;;;;;;;;137327;1272;22587;-84
2023/12/07 10:43:53;;;;;;;;;;;;;;;;;;137161;1272;22487;-83
2023/12/07 10:46:58;;;;;;;;;;;;;;;;;;137220;1272;22530;-83
2023/12/07 10:50:01;;;;;;;;;;;;;;;;;;137697;1272;22279;-84
2023/12/07 10:53:03;;;;;;;;;;;;;;;;;;137379;1272;22920;-83
2023/12/07 10:56:07;;;;;;;;;;;;;;;;;;137636;1272;22332;-83
2023/12/07 10:59:11;;;;;;;;;;;;;;;;;;137612;1272;22295;-84
2023/12/07 11:02:12;;;;;;;;;;;;;;;;;;137140;1272;22531;-85
2023/12/07 11:05:13;;;;;;;;;;;;;;;;;;136882;1262;22683;-83
2023/12/07 11:08:14;;;;;;;;;;;;;;;;;;137040;1272;22523;-82
2023/12/07 11:11:15;;;;;;;;;;;;;;;;;;137266;1272;22485;-82
2023/12/07 11:14:19;;;;;;;;;;;;;;;;;;137536;1272;22546;-82
2023/12/07 11:17:22;;;;;;;;;;;;;;;;;;137462;1272;22537;-83
2023/12/07 11:20:23;;;;;;;;;;;;;;;;;;137343;1272;22476;-81
2023/12/07 11:23:25;;;;;;;;;;;;;;;;;;137598;1272;22395;-81
2023/12/07 11:26:26;;;;;;;;;;;;;;;;;;137575;1272;22482;-84
2023/12/07 11:29:30;;;;;;;;;;;;;;;;;;136888;1272;23114;-84
2023/12/07 11:32:42;;;;;;;;;;;;;;;;;;137560;1272;22485;-83
2023/12/07 11:35:44;;;;;;;;;;;;;;;;;;137584;1272;22333;-83
2023/12/07 11:38:48;;;;;;;;;;;;;;;;;;137619;1265;22345;-82
2023/12/07 11:41:50;;;;;;;;;;;;;;;;;;137052;1272;22541;-83
2023/12/07 11:44:54;;;;;;;;;;;;;;;;;;137549;1272;22590;-83
2023/12/07 11:47:55;;;;;;;;;;;;;;;;;;137110;1272;22543;-82
2023/12/07 11:50:58;;;;;;;;;;;;;;;;;;137211;1272;22530;-82
2023/12/07 11:54:00;;;;;;;;;;;;;;;;;;137144;1272;22525;-82
2023/12/07 11:57:01;;;;;;;;;;;;;;;;;;137329;1272;22528;-81
2023/12/07 12:00:02;;;;;;;;;;;;;;;;;;137491;1272;22596;-82
2023/12/07 12:03:03;;;;;;;;;;;;;;;;;;137340;1272;22552;-82
2023/12/07 12:06:05;;;;;;;;;;;;;;;;;;137259;1272;22553;-82
2023/12/07 12:09:06;;;;;;;;;;;;;;;;;;137578;1272;22539;-83
2023/12/07 12:12:07;;;;;;;;;;;;;;;;;;137102;1272;22485;-82
2023/12/07 12:15:08;;;;;;;;;;;;;;;;;;137604;1272;22535;-83
2023/12/07 12:18:10;;;;;;;;;;;;;;;;;;137602;1272;22327;-81
2023/12/07 12:21:11;;;;;;;;;;;;;;;;;;137012;1272;22568;-82
2023/12/07 12:24:12;;;;;;;;;;;;;;;;;;137290;1272;22559;-82
2023/12/07 12:27:17;;;;;;;;;;;;;;;;;;137179;1272;22525;-83
2023/12/07 12:30:18;;;;;;;;;;;;;;;;;;137275;1272;22875;-82
2023/12/07 12:33:21;;;;;;;;;;;;;;;;;;137206;1272;22506;-82
2023/12/07 12:36:23;;;;;;;;;;;;;;;;;;137638;1269;22342;-83
2023/12/07 12:39:27;;;;;;;;;;;;;;;;;;137621;1272;22308;-82
2023/12/07 12:42:29;;;;;;;;;;;;;;;;;;137261;1272;22708;-82
2023/12/07 12:45:30;;;;;;;;;;;;;;;;;;137268;1272;22537;-82
2023/12/07 12:48:32;;;;;;;;;;;;;;;;;;137641;1272;22308;-82
2023/12/07 12:51:36;;;;;;;;;;;;;;;;;;137418;1272;22552;-82
2023/12/07 12:54:39;;;;;;;;;;;;;;;;;;137341;1272;22515;-81
2023/12/07 12:57:40;;;;;;;;;;;;;;;;;;137021;1272;22523;-82
2023/12/07 13:00:45;;;;;;;;;;;;;;;;;;137353;1272;22534;-81
2023/12/07 13:03:46;;;;;;;;;;;;;;;;;;137337;1272;22572;-81
2023/12/07 13:06:48;;;;;;;;;;;;;;;;;;137370;1272;22849;-82
2023/12/07 13:09:50;;;;;;;;;;;;;;;;;;137592;1272;22321;-84
2023/12/07 13:12:52;;;;;;;;;;;;;;;;;;137604;1272;22946;-82
2023/12/07 13:15:53;;;;;;;;;;;;;;;;;;137552;1272;22346;-83
2023/12/07 13:18:54;;;;;;;;;;;;;;;;;;137589;1272;22392;-83
2023/12/07 13:21:56;;;;;;;;;;;;;;;;;;137342;1269;25091;-82
2023/12/07 13:25:00;;;;;;;;;;;;;;;;;;137575;1272;22351;-81
2023/12/07 13:28:01;;;;;;;;;;;;;;;;;;137121;1272;22548;-83
2023/12/07 13:31:02;;;;;;;;;;;;;;;;;;137192;1272;23009;-83
2023/12/07 13:34:04;;;;;;;;;;;;;;;;;;137176;1269;22549;-81
2023/12/07 13:37:05;;;;;;;;;;;;;;;;;;137623;1272;22461;-84
2023/12/07 13:40:09;;;;;;;;;;;;;;;;;;137536;1272;22551;-82
2023/12/07 13:43:11;;;;;;;;;;;;;;;;;;137413;1272;22543;-82
2023/12/07 13:46:12;;;;;;;;;;;;;;;;;;137598;1272;22539;-79
2023/12/07 13:49:14;;;;;;;;;;;;;;;;;;137353;1272;22508;-83
2023/12/07 13:52:17;;;;;;;;;;;;;;;;;;137561;1264;22409;-81
2023/12/07 13:55:18;;;;;;;;;;;;;;;;;;137598;1268;22309;-81
2023/12/07 13:58:20;;;;;;;;;;;;;;;;;;137579;1272;22344;-82
2023/12/07 14:01:22;;;;;;;;;;;;;;;;;;137574;1272;22875;-82
2023/12/07 14:04:23;;;;;;;;;;;;;;;;;;137581;1272;22330;-83
2023/12/07 14:07:24;;;;;;;;;;;;;;;;;;137621;1272;22344;-83
2023/12/07 14:10:25;;;;;;;;;;;;;;;;;;137580;1272;22312;-82
2023/12/07 14:13:26;;;;;;;;;;;;;;;;;;137575;1272;22394;-82
2023/12/07 14:16:28;;;;;;;;;;;;;;;;;;137601;1272;22969;-81
2023/12/07 14:19:29;;;;;;;;;;;;;;;;;;137610;1269;22281;-84
2023/12/07 14:22:30;;;;;;;;;;;;;;;;;;137585;1272;22265;-82
2023/12/07 14:25:31;;;;;;;;;;;;;;;;;;137594;1272;22338;-84
2023/12/07 14:28:33;;;;;;;;;;;;;;;;;;137565;1260;22305;-82
2023/12/07 14:31:36;;;;;;;;;;;;;;;;;;137555;1272;22463;-82
2023/12/07 14:34:37;;;;;;;;;;;;;;;;;;137587;1272;22268;-80
2023/12/07 14:37:40;;;;;;;;;;;;;;;;;;137564;1272;22399;-82
2023/12/07 14:40:42;;;;;;;;;;;;;;;;;;137593;1272;22716;-82
2023/12/07 14:43:47;;;;;;;;;;;;;;;;;;137316;1272;22500;-82
2023/12/07 14:46:49;;;;;;;;;;;;;;;;;;137633;1272;22399;-82
2023/12/07 14:49:50;;;;;;;;;;;;;;;;;;137615;1272;22326;-83
2023/12/07 14:52:51;;;;;;;;;;;;;;;;;;137583;1272;22308;-82
2023/12/07 14:55:52;;;;;;;;;;;;;;;;;;137618;1272;22319;-82
2023/12/07 14:58:53;;;;;;;;;;;;;;;;;;137634;1272;22346;-82
2023/12/07 15:01:54;;;;;;;;;;;;;;;;;;137623;1272;22514;-81
2023/12/07 15:04:55;;;;;;;;;;;;;;;;;;137315;1272;22511;-79
2023/12/07 15:07:57;;;;;;;;;;;;;;;;;;137676;1272;22320;-81
2023/12/07 15:10:58;;;;;;;;;;;;;;;;;;137620;1272;22268;-80
2023/12/07 15:13:59;;;;;;;;;;;;;;;;;;137349;1272;22507;-80
2023/12/07 15:17:00;;;;;;;;;;;;;;;;;;137624;1272;22280;-80
2023/12/07 15:20:03;;;;;;;;;;;;;;;;;;137613;1272;22355;-80
2023/12/07 15:23:05;;;;;;;;;;;;;;;;;;137613;1272;22344;-78
2023/12/07 15:26:07;;;;;;;;;;;;;;;;;;137576;1272;22313;-78
2023/12/07 15:29:09;;;;;;;;;;;;;;;;;;137608;1272;22305;-81
2023/12/07 15:32:10;;;;;;;;;;;;;;;;;;137631;1272;22457;-80
2023/12/07 15:35:11;;;;;;;;;;;;;;;;;;137647;1272;22323;-79
2023/12/07 15:38:12;;;;;;;;;;;;;;;;;;137641;1272;22316;-79
2023/12/07 15:41:14;;;;;;;;;;;;;;;;;;137691;1272;22316;-79
2023/12/07 15:44:15;;;;;;;;;;;;;;;;;;137054;1272;23223;-78
2023/12/07 15:47:16;;;;;;;;;;;;;;;;;;136947;1272;22894;-80
2023/12/07 15:50:17;;;;;;;;;;;;;;;;;;137674;1272;22266;-79
2023/12/07 15:53:18;;;;;;;;;;;;;;;;;;136980;1270;22644;-80
2023/12/07 15:56:20;;;;;;;;;;;;;;;;;;136817;1272;22533;-79
2023/12/07 15:59:24;;;;;;;;;;;;;;;;;;137547;1272;22990;-80
2023/12/07 16:02:25;;;;;;;;;;;;;;;;;;136884;1272;22483;-80
2023/12/07 16:05:27;;;;;;;;;;;;;;;;;;137428;1272;22504;-80
2023/12/07 16:08:33;;;;;;;;;;;;;;;;;;136932;1272;22570;-79
2023/12/07 16:11:34;;;;;;;;;;;;;;;;;;137541;1272;22516;-78
2023/12/07 16:14:39;;;;;;;;;;;;;;;;;;137279;1272;22523;-79
2023/12/07 16:17:41;;;;;;;;;;;;;;;;;;136956;1272;22602;-80
2023/12/07 16:20:42;;;;;;;;;;;;;;;;;;137514;1272;22474;-80
2023/12/07 16:23:44;;;;;;;;;;;;;;;;;;136867;1272;22602;-80
2023/12/07 16:26:45;;;;;;;;;;;;;;;;;;137154;1272;22511;-80
2023/12/07 16:29:47;;;;;;;;;;;;;;;;;;137095;1272;22498;-80
2023/12/07 16:32:49;;;;;;;;;;;;;;;;;;137549;1272;22495;-80
2023/12/07 16:35:50;;;;;;;;;;;;;;;;;;137208;1272;22613;-81
2023/12/07 16:38:51;;;;;;;;;;;;;;;;;;137142;1272;22481;-80
2023/12/07 16:41:53;;;;;;;;;;;;;;;;;;137441;1272;22568;-81
2023/12/07 16:44:55;;;;;;;;;;;;;;;;;;132674;1270;5925787;-81
2023/12/07 16:47:57;;;;;;;;;;;;;;;;;;136960;1272;22620;-80
2023/12/07 16:50:59;;;;;;;;;;;;;;;;;;137130;1272;22606;-82
2023/12/07 16:54:03;;;;;;;;;;;;;;;;;;137338;1272;22525;-81
2023/12/07 16:57:04;;;;;;;;;;;;;;;;;;137225;1272;22950;-80
2023/12/07 17:00:06;;;;;;;;;;;;;;;;;;137577;1272;23198;-81
2023/12/07 17:03:09;;;;;;;;;;;;;;;;;;137640;1272;22515;-80
2023/12/07 17:06:11;;;;;;;;;;;;;;;;;;137125;1272;22560;-81
2023/12/07 17:09:21;;;;;;;;;;;;;;;;;;137225;1272;22994;-80
2023/12/07 17:12:24;;;;;;;;;;;;;;;;;;137645;1272;22517;-80
2023/12/07 17:15:26;;;;;;;;;;;;;;;;;;136930;1272;22541;-80
2023/12/07 17:18:30;;;;;;;;;;;;;;;;;;136852;1272;22523;-80
2023/12/07 17:21:32;;;;;;;;;;;;;;;;;;136931;1272;22536;-80
2023/12/07 17:24:36;;;;;;;;;;;;;;;;;;136766;1272;22578;-81
2023/12/07 17:27:37;;;;;;;;;;;;;;;;;;136890;1272;22961;-80
2023/12/07 17:30:39;;;;;;;;;;;;;;;;;;137410;1272;25951;-80
2023/12/07 17:33:41;;;;;;;;;;;;;;;;;;137154;1272;22565;-79
2023/12/07 17:36:43;;;;;;;;;;;;;;;;;;136693;1272;22528;-81
2023/12/07 17:39:44;;;;;;;;;;;;;;;;;;137280;1272;22745;-80
2023/12/07 17:42:45;;;;;;;;;;;;;;;;;;137307;1272;22508;-80
2023/12/07 17:45:46;;;;;;;;;;;;;;;;;;137266;1272;22520;-79
2023/12/07 17:48:49;;;;;;;;;;;;;;;;;;137384;1272;22516;-80
2023/12/07 17:51:50;;;;;;;;;;;;;;;;;;137327;1270;22561;-81
2023/12/07 17:54:55;;;;;;;;;;;;;;;;;;136971;1272;22552;-80
2023/12/07 17:57:58;;;;;;;;;;;;;;;;;;136938;1272;22557;-80
2023/12/07 18:00:59;;;;;;;;;;;;;;;;;;137503;1272;22498;-83
2023/12/07 18:04:03;;;;;;;;;;;;;;;;;;136975;1272;22520;-82
2023/12/07 18:07:04;;;;;;;;;;;;;;;;;;136724;1267;22595;-80
2023/12/07 18:10:06;;;;;;;;;;;;;;;;;;137331;1272;22521;-83
2023/12/07 18:13:09;;;;;;;;;;;;;;;;;;137135;1272;23138;-83
2023/12/07 18:16:10;;;;;;;;;;;;;;;;;;136580;1272;22550;-83
2023/12/07 18:19:15;;;;;;;;;;;;;;;;;;135985;1272;22628;-83
2023/12/07 18:22:16;;;;;;;;;;;;;;;;;;137004;1272;22519;-82
2023/12/07 18:25:18;;;;;;;;;;;;;;;;;;137099;1272;22540;-83
2023/12/07 18:28:19;;;;;;;;;;;;;;;;;;137490;1272;22610;-82
2023/12/07 18:31:20;;;;;;;;;;;;;;;;;;137047;1272;22536;-82
2023/12/07 18:34:22;;;;;;;;;;;;;;;;;;137357;1272;23101;-82
2023/12/07 18:37:23;;;;;;;;;;;;;;;;;;137041;1257;22538;-83
2023/12/07 18:40:25;;;;;;;;;;;;;;;;;;137387;1272;22507;-83
2023/12/07 18:43:26;;;;;;;;;;;;;;;;;;137007;1272;22595;-82
2023/12/07 18:46:28;;;;;;;;;;;;;;;;;;137018;1272;22917;-82
2023/12/07 18:49:30;;;;;;;;;;;;;;;;;;137593;1272;22505;-80
2023/12/07 18:52:32;;;;;;;;;;;;;;;;;;136839;1272;22638;-79
2023/12/07 18:55:34;;;;;;;;;;;;;;;;;;136992;1272;22579;-84
2023/12/07 18:58:36;;;;;;;;;;;;;;;;;;137684;1272;22953;-84
2023/12/07 19:01:38;;;;;;;;;;;;;;;;;;136944;1272;22798;-83
2023/12/07 19:04:39;;;;;;;;;;;;;;;;;;137007;1272;22995;-84
2023/12/07 19:07:43;;;;;;;;;;;;;;;;;;137500;1272;22533;-85
2023/12/07 19:10:44;;;;;;;;;;;;;;;;;;136929;1272;22599;-84
2023/12/07 19:13:45;;;;;;;;;;;;;;;;;;136980;1272;22553;-84
2023/12/07 19:16:47;;;;;;;;;;;;;;;;;;137622;1272;22517;-85
2023/12/07 19:19:48;;;;;;;;;;;;;;;;;;137487;1272;23014;-83
2023/12/07 19:22:49;;;;;;;;;;;;;;;;;;137641;1272;22865;-83
2023/12/07 19:25:50;;;;;;;;;;;;;;;;;;137652;1272;22322;-82
2023/12/07 19:28:52;;;;;;;;;;;;;;;;;;137688;1272;22338;-83
2023/12/07 19:31:53;;;;;;;;;;;;;;;;;;137326;1272;22478;-83
2023/12/07 19:34:55;;;;;;;;;;;;;;;;;;137667;1268;22354;-84
2023/12/07 19:37:56;;;;;;;;;;;;;;;;;;137493;1272;22524;-82
2023/12/07 19:40:57;;;;;;;;;;;;;;;;;;137046;1272;22506;-83
2023/12/07 19:43:58;;;;;;;;;;;;;;;;;;137164;1272;22508;-82
2023/12/07 19:47:02;;;;;;;;;;;;;;;;;;137646;1272;22391;-83
2023/12/07 19:50:04;;;;;;;;;;;;;;;;;;137145;1272;22505;-82
2023/12/07 19:53:05;;;;;;;;;;;;;;;;;;137081;1272;22510;-82
2023/12/07 19:56:07;;;;;;;;;;;;;;;;;;137665;1272;22349;-83
2023/12/07 19:59:08;;;;;;;;;;;;;;;;;;137500;1272;22540;-83
2023/12/07 20:02:15;;;;;;;;;;;;;;;;;;136795;1272;22510;-85
2023/12/07 20:05:16;;;;;;;;;;;;;;;;;;137315;1272;22509;-86
2023/12/07 20:08:17;;;;;;;;;;;;;;;;;;137283;1272;22497;-85
2023/12/07 20:11:18;;;;;;;;;;;;;;;;;;136965;1268;22984;-84
2023/12/07 20:14:19;;;;;;;;;;;;;;;;;;136948;1272;22575;-84
2023/12/07 20:17:21;;;;;;;;;;;;;;;;;;137555;1272;22514;-83
2023/12/07 20:20:22;;;;;;;;;;;;;;;;;;136780;1272;23427;-79